Aviation Digital Data Service (ADDS)

Output produced by METARs form (1825 UTC 22 November 2017)
found at http://www.aviationweather.gov/adds/metars/
 
TAF SVBC 221600Z 2218/2318 07006KT 9999 SCT010 TX36/18Z TN25/09Z 
     BECMG 2218/2222 36004KT SCT013
       
TAF SVMI 221600Z 2218/2318 05010KT 9999 SCT016 TX33/18Z TN25/09Z 
     BECMG 2218/2222 10006KT BKN013
       
TAF SVMC 221600Z 2218/2318 07008KT 9999 SCT013 TX36/19Z TN25/09Z 
     BECMG 2218/2222 06004KT FEW013
       
TAF SVMG 221600Z 2218/2318 10006KT 9999 FEW013 TX33/19Z TN25/08Z 
     BECMG 2218/2222 06006KT SCT013
       
TAF SVJC 221600Z 2218/2318 06012KT 9999 SCT013 TX36/19Z TN25/09Z 
     BECMG 2218/2222 09008KT FEW013
       
TAF SVSA 221600Z 2218/2318 19005KT 9999 FEW020 TX34/19Z TN24/08Z 
     BECMG 2218/2222 18004KT BKN013